Time;durP1;ratioP1;P1;durP2;ratioP2;P2;SDS_P1;SDS_P2;PMS_P1;PMS_P2;Temp;Humidity;BMP_temperature;BMP_pressure;BME280_temperature;BME280_humidity;BME280_pressure;Samples;Min_cycle;Max_cycle;Signal;HPM_P1;HPM_P2
2023/12/08 00:00:53;;;;;;;33.92;17.38;;;1.20;99.90;;;;;;5054994;28;20135;-63
2023/12/08 00:03:19;;;;;;;29.75;15.68;;;1.20;99.90;;;;;;5056059;28;20091;-64
2023/12/08 00:05:44;;;;;;;31.20;15.57;;;1.10;99.90;;;;;;5065848;28;20437;-64
2023/12/08 00:08:10;;;;;;;31.92;15.82;;;1.20;99.90;;;;;;5066087;28;20225;-64
2023/12/08 00:10:35;;;;;;;28.95;15.82;;;1.20;99.90;;;;;;5054521;28;20045;-65
2023/12/08 00:13:01;;;;;;;30.90;16.17;;;1.20;99.90;;;;;;5053442;28;20409;-64
2023/12/08 00:15:27;;;;;;;27.88;16.10;;;1.40;99.90;;;;;;5051951;28;20062;-64
2023/12/08 00:17:53;;;;;;;32.50;16.48;;;1.20;99.90;;;;;;5055618;28;20541;-65
2023/12/08 00:20:19;;;;;;;32.38;15.07;;;1.20;99.90;;;;;;5062510;28;20553;-64
2023/12/08 00:22:44;;;;;;;30.38;15.57;;;2.10;99.90;;;;;;5066445;28;20059;-64
2023/12/08 00:25:11;;;;;;;31.27;15.70;;;1.20;99.90;;;;;;5065970;28;20048;-64
2023/12/08 00:27:36;;;;;;;29.85;16.02;;;1.20;99.90;;;;;;5067154;28;20037;-64
2023/12/08 00:30:03;;;;;;;29.15;15.30;;;1.20;99.90;;;;;;5066208;28;20047;-64
2023/12/08 00:32:29;;;;;;;29.88;15.68;;;1.20;99.90;;;;;;5047959;28;20075;-64
2023/12/08 00:34:55;;;;;;;27.25;14.85;;;1.20;99.90;;;;;;5064725;28;20459;-62
2023/12/08 00:37:21;;;;;;;28.65;15.10;;;1.40;99.90;;;;;;5067389;28;20051;-62
2023/12/08 00:39:47;;;;;;;29.95;15.05;;;1.20;99.90;;;;;;5062665;28;20067;-62
2023/12/08 00:42:12;;;;;;;29.80;16.00;;;1.20;99.90;;;;;;5065222;28;20048;-63
2023/12/08 00:44:38;;;;;;;31.83;15.57;;;1.20;99.90;;;;;;5069978;28;20118;-63
2023/12/08 00:47:04;;;;;;;31.92;16.52;;;1.20;99.90;;;;;;5046754;28;20553;-64
2023/12/08 00:49:30;;;;;;;30.80;16.00;;;1.20;99.90;;;;;;5053841;28;20078;-63
2023/12/08 00:51:56;;;;;;;29.88;15.98;;;1.40;99.90;;;;;;5052061;28;20033;-64
2023/12/08 00:54:22;;;;;;;31.60;16.10;;;1.30;99.90;;;;;;5058390;28;20052;-63
2023/12/08 00:56:48;;;;;;;31.13;16.10;;;1.10;99.90;;;;;;5054798;28;20348;-64
2023/12/08 00:59:13;;;;;;;27.08;15.43;;;1.10;99.90;;;;;;5091881;28;20143;-64
2023/12/08 01:01:39;;;;;;;27.70;15.35;;;1.20;99.90;;;;;;5065591;28;20053;-65
2023/12/08 01:04:05;;;;;;;29.55;15.52;;;1.10;99.90;;;;;;5045435;28;20251;-65
2023/12/08 01:06:30;;;;;;;29.88;16.58;;;1.10;99.90;;;;;;5056147;28;20102;-64
2023/12/08 01:08:56;;;;;;;28.70;16.10;;;1.10;99.90;;;;;;5065806;28;20133;-64
2023/12/08 01:11:22;;;;;;;27.25;15.63;;;1.10;99.90;;;;;;5060321;28;20520;-64
2023/12/08 01:13:48;;;;;;;30.98;16.38;;;1.10;99.90;;;;;;5070080;28;20363;-62
2023/12/08 01:16:13;;;;;;;30.02;16.45;;;1.80;99.90;;;;;;5045587;28;20044;-64
2023/12/08 01:18:39;;;;;;;30.00;15.05;;;1.10;99.90;;;;;;5045816;28;20722;-63
2023/12/08 01:21:05;;;;;;;31.20;15.85;;;1.10;99.90;;;;;;5050090;28;20131;-63
2023/12/08 01:23:31;;;;;;;29.92;16.50;;;1.10;99.90;;;;;;5063261;28;20070;-64
2023/12/08 01:25:57;;;;;;;28.38;16.20;;;1.10;99.90;;;;;;5075661;28;20102;-63
2023/12/08 01:28:23;;;;;;;33.10;16.55;;;1.10;99.90;;;;;;5064044;28;20117;-64
2023/12/08 01:30:48;;;;;;;29.23;16.35;;;1.10;99.90;;;;;;5059107;28;20045;-63
2023/12/08 01:33:14;;;;;;;30.35;16.75;;;1.10;99.90;;;;;;5062934;28;20043;-64
2023/12/08 01:35:40;;;;;;;29.90;16.17;;;1.10;99.90;;;;;;5065741;28;20060;-64
2023/12/08 01:38:06;;;;;;;28.88;16.02;;;1.10;99.90;;;;;;5058794;28;20502;-63
2023/12/08 01:40:31;;;;;;;29.10;16.10;;;1.10;99.90;;;;;;5048583;28;20033;-64
2023/12/08 01:42:57;;;;;;;31.00;16.95;;;1.10;99.90;;;;;;5044657;28;20057;-63
2023/12/08 01:45:22;;;;;;;28.77;16.25;;;1.10;99.90;;;;;;5061303;28;20053;-63
2023/12/08 01:47:49;;;;;;;34.92;17.20;;;1.10;99.90;;;;;;5064627;28;20147;-63
2023/12/08 01:50:17;;;;;;;31.13;16.35;;;1.10;99.90;;;;;;5054772;28;20608;-63
2023/12/08 01:52:43;;;;;;;31.85;16.65;;;1.10;99.90;;;;;;5062754;28;20093;-63
2023/12/08 01:55:10;;;;;;;30.20;16.63;;;1.10;99.90;;;;;;5063168;28;20041;-63
2023/12/08 01:57:36;;;;;;;28.27;15.95;;;1.10;99.90;;;;;;5045794;28;20049;-65
2023/12/08 02:00:02;;;;;;;28.13;15.55;;;1.10;99.90;;;;;;5028298;28;20052;-65
2023/12/08 02:02:28;;;;;;;29.50;15.43;;;1.10;99.90;;;;;;5044925;28;20167;-65
2023/12/08 02:04:58;;;;;;;29.17;16.83;;;1.10;99.90;;;;;;5044717;28;20143;-65
2023/12/08 02:07:25;;;;;;;33.03;17.52;;;1.10;99.90;;;;;;5038124;28;20048;-65
2023/12/08 02:09:51;;;;;;;30.48;17.05;;;1.10;99.90;;;;;;5063431;28;20052;-65
2023/12/08 02:12:17;;;;;;;31.35;16.38;;;1.10;99.90;;;;;;5051700;28;20741;-64
2023/12/08 02:14:43;;;;;;;28.55;16.20;;;1.10;99.90;;;;;;5050841;28;20101;-65
2023/12/08 02:17:34;;;;;;;28.73;16.98;;;1.10;99.90;;;;;;5048933;28;20592;-65
2023/12/08 02:20:03;;;;;;;29.52;15.85;;;1.10;99.90;;;;;;5080425;28;20040;-64
2023/12/08 02:22:29;;;;;;;32.03;16.13;;;1.10;99.90;;;;;;5047742;28;20051;-66
2023/12/08 02:24:54;;;;;;;30.33;16.42;;;1.10;99.90;;;;;;5065872;28;20481;-65
2023/12/08 02:27:23;;;;;;;33.08;16.85;;;1.10;99.90;;;;;;5045377;28;20500;-65
2023/12/08 02:29:49;;;;;;;30.42;16.15;;;1.10;99.90;;;;;;5064734;28;20044;-65
2023/12/08 02:32:25;;;;;;;29.55;16.30;;;1.10;99.90;;;;;;5055791;28;20037;-65
2023/12/08 02:34:52;;;;;;;31.45;17.00;;;1.10;99.90;;;;;;5055498;28;20057;-65
2023/12/08 02:37:19;;;;;;;28.23;16.92;;;1.10;99.90;;;;;;5068706;28;20143;-63
2023/12/08 02:39:48;;;;;;;33.38;17.17;;;1.10;99.90;;;;;;5050577;28;20047;-64
2023/12/08 02:42:14;;;;;;;28.98;16.33;;;1.10;99.90;;;;;;5050267;28;20091;-64
2023/12/08 02:44:40;;;;;;;29.05;15.93;;;1.00;99.90;;;;;;5065941;28;20048;-63
2023/12/08 02:47:06;;;;;;;31.17;16.13;;;1.10;99.90;;;;;;5064556;28;20094;-65
2023/12/08 02:49:34;;;;;;;33.83;17.00;;;1.50;99.90;;;;;;5068005;28;20049;-65
2023/12/08 02:52:01;;;;;;;30.75;16.50;;;1.10;99.90;;;;;;5048731;28;20091;-65
2023/12/08 02:54:27;;;;;;;29.17;16.13;;;1.10;99.90;;;;;;5048850;28;20106;-66
2023/12/08 02:56:53;;;;;;;30.50;16.55;;;1.10;99.90;;;;;;5049527;28;20132;-65
2023/12/08 02:59:19;;;;;;;27.33;15.60;;;1.10;99.90;;;;;;5037697;28;20453;-66
2023/12/08 03:01:45;;;;;;;30.02;16.42;;;1.10;99.90;;;;;;5051060;28;20143;-65
2023/12/08 03:04:11;;;;;;;30.42;16.70;;;1.10;99.90;;;;;;5043385;28;20123;-65
2023/12/08 03:06:37;;;;;;;27.52;15.60;;;1.10;99.90;;;;;;5045169;28;20162;-65
2023/12/08 03:09:04;;;;;;;30.20;16.60;;;1.10;99.90;;;;;;5049666;28;20481;-66
2023/12/08 03:11:30;;;;;;;30.00;16.17;;;1.10;99.90;;;;;;5068775;28;20040;-66
2023/12/08 03:13:56;;;;;;;33.17;16.50;;;1.10;99.90;;;;;;5047256;28;20055;-65
2023/12/08 03:16:22;;;;;;;32.22;16.90;;;1.10;99.90;;;;;;5032197;28;20110;-65
2023/12/08 03:18:48;;;;;;;29.15;15.48;;;1.10;99.90;;;;;;5051376;28;20064;-66
2023/12/08 03:21:22;;;;;;;31.58;16.50;;;1.10;99.90;;;;;;5067446;28;20127;-65
2023/12/08 03:23:48;;;;;;;28.23;14.80;;;1.10;99.90;;;;;;5049114;28;20122;-65
2023/12/08 03:26:14;;;;;;;29.10;15.77;;;1.10;99.90;;;;;;5049732;28;20040;-65
2023/12/08 03:28:40;;;;;;;31.50;16.33;;;1.20;99.90;;;;;;5068378;28;20063;-66
2023/12/08 03:31:06;;;;;;;35.78;17.45;;;1.20;99.90;;;;;;5067820;28;20123;-64
2023/12/08 03:33:32;;;;;;;29.42;16.63;;;1.10;99.90;;;;;;5035026;28;20055;-65
2023/12/08 03:35:58;;;;;;;31.92;15.93;;;1.20;99.90;;;;;;5053532;28;20036;-66
2023/12/08 03:38:24;;;;;;;27.02;15.40;;;1.80;99.90;;;;;;5054544;28;20055;-66
2023/12/08 03:40:50;;;;;;;29.98;15.80;;;1.10;99.90;;;;;;5059539;28;20413;-66
2023/12/08 03:43:17;;;;;;;28.17;16.27;;;1.10;99.90;;;;;;5068480;28;20051;-66
2023/12/08 03:45:44;;;;;;;30.60;16.70;;;1.10;99.90;;;;;;5050256;28;20053;-66
2023/12/08 03:48:09;;;;;;;29.65;15.18;;;1.10;99.90;;;;;;5044739;28;20043;-66
2023/12/08 03:50:36;;;;;;;27.23;15.07;;;1.10;99.90;;;;;;5040094;28;20044;-65
2023/12/08 03:53:01;;;;;;;28.30;15.80;;;1.10;99.90;;;;;;5066690;28;20047;-66
2023/12/08 03:55:27;;;;;;;30.38;16.83;;;1.70;99.90;;;;;;5051368;28;20040;-66
2023/12/08 03:57:53;;;;;;;30.13;16.40;;;1.10;99.90;;;;;;5066216;28;20060;-65
2023/12/08 04:00:19;;;;;;;29.70;15.10;;;1.10;99.90;;;;;;5065349;28;20048;-63
2023/12/08 04:02:45;;;;;;;27.15;15.57;;;1.20;99.90;;;;;;5063039;28;20418;-63
2023/12/08 04:05:11;;;;;;;29.50;16.35;;;1.30;99.90;;;;;;5048796;28;20091;-63
2023/12/08 04:07:36;;;;;;;26.88;15.57;;;1.10;99.90;;;;;;5068232;28;20052;-63
2023/12/08 04:10:02;;;;;;;30.45;16.88;;;1.10;99.90;;;;;;5065783;28;20447;-63
2023/12/08 04:12:28;;;;;;;30.48;15.77;;;1.10;99.90;;;;;;5066549;28;20083;-63
2023/12/08 04:14:54;;;;;;;29.92;16.58;;;1.10;99.90;;;;;;5017156;28;20053;-63
2023/12/08 04:17:19;;;;;;;36.85;16.92;;;1.00;99.90;;;;;;5047972;28;20084;-63
2023/12/08 04:19:45;;;;;;;30.55;16.70;;;1.10;99.90;;;;;;5057594;28;20447;-63
2023/12/08 04:22:11;;;;;;;30.55;16.38;;;1.20;99.90;;;;;;5054417;28;20043;-63
2023/12/08 04:24:36;;;;;;;30.70;16.25;;;1.00;99.90;;;;;;5066497;28;20132;-63
2023/12/08 04:27:02;;;;;;;31.83;17.45;;;1.00;99.90;;;;;;5061083;28;20393;-63
2023/12/08 04:29:28;;;;;;;32.83;16.67;;;1.00;99.90;;;;;;5065459;28;20044;-63
2023/12/08 04:31:53;;;;;;;31.27;16.45;;;1.00;99.90;;;;;;5063105;28;20072;-63
2023/12/08 04:34:19;;;;;;;29.25;16.73;;;1.90;99.90;;;;;;5067980;28;20044;-63
2023/12/08 04:36:45;;;;;;;30.83;17.08;;;1.10;99.90;;;;;;5082649;28;20048;-63
2023/12/08 04:39:10;;;;;;;30.75;16.95;;;1.00;99.90;;;;;;5067090;28;20044;-63
2023/12/08 04:41:36;;;;;;;30.25;15.75;;;0.90;99.90;;;;;;5064802;28;20139;-63
2023/12/08 04:44:02;;;;;;;31.00;16.25;;;0.90;99.90;;;;;;5056444;28;20037;-62
2023/12/08 04:46:28;;;;;;;32.63;17.60;;;0.90;99.90;;;;;;5055450;28;20440;-62
2023/12/08 04:48:54;;;;;;;36.13;17.35;;;0.90;99.90;;;;;;5075979;28;20056;-64
2023/12/08 04:51:19;;;;;;;31.90;18.00;;;0.90;99.90;;;;;;5048555;28;20051;-63
2023/12/08 04:53:45;;;;;;;37.70;17.83;;;0.80;99.90;;;;;;5052223;28;20049;-63
2023/12/08 04:56:10;;;;;;;40.00;17.98;;;0.80;99.90;;;;;;5063477;28;20052;-63
2023/12/08 04:58:39;;;;;;;32.70;18.35;;;0.90;99.90;;;;;;5061059;28;20695;-63
2023/12/08 05:01:04;;;;;;;33.22;17.67;;;0.80;99.90;;;;;;5049647;28;20041;-66
2023/12/08 05:03:30;;;;;;;30.88;16.95;;;0.70;99.90;;;;;;5066698;28;20527;-63
2023/12/08 05:05:56;;;;;;;32.22;16.88;;;0.70;99.90;;;;;;5067246;28;20076;-63
2023/12/08 05:08:23;;;;;;;34.30;18.05;;;0.70;99.90;;;;;;5065630;28;20052;-63
2023/12/08 05:10:48;;;;;;;31.60;17.10;;;0.70;99.90;;;;;;5059226;28;20057;-63
2023/12/08 05:13:15;;;;;;;32.42;17.67;;;0.70;99.90;;;;;;5045890;28;20051;-64
2023/12/08 05:15:41;;;;;;;36.40;17.00;;;0.90;99.90;;;;;;5068991;28;20650;-64
2023/12/08 05:18:07;;;;;;;33.00;17.75;;;0.70;99.90;;;;;;5047120;28;20636;-64
2023/12/08 05:20:33;;;;;;;32.05;17.33;;;0.70;99.90;;;;;;5058756;28;20649;-64
2023/12/08 05:22:58;;;;;;;33.30;18.38;;;-0.20;99.90;;;;;;5047056;28;20047;-64
2023/12/08 05:25:24;;;;;;;36.08;18.42;;;0.70;99.90;;;;;;5055231;28;20044;-63
2023/12/08 05:27:49;;;;;;;35.17;18.73;;;0.70;99.90;;;;;;5061006;28;20119;-64
2023/12/08 05:30:15;;;;;;;36.15;19.67;;;0.70;99.90;;;;;;5063026;28;20045;-64
2023/12/08 05:32:41;;;;;;;34.17;17.23;;;0.70;99.90;;;;;;5063943;28;20040;-63
2023/12/08 05:35:07;;;;;;;37.13;18.80;;;0.70;99.90;;;;;;5048554;28;20123;-63
2023/12/08 05:37:33;;;;;;;31.00;16.85;;;0.70;99.90;;;;;;5046827;28;20051;-63
2023/12/08 05:39:58;;;;;;;32.28;16.70;;;1.70;99.90;;;;;;5056597;28;20052;-63
2023/12/08 05:42:24;;;;;;;34.28;17.77;;;0.60;99.90;;;;;;5057346;28;20129;-63
2023/12/08 05:44:50;;;;;;;33.33;17.65;;;0.70;99.90;;;;;;5067925;28;20169;-64
2023/12/08 05:47:15;;;;;;;35.83;18.02;;;0.70;99.90;;;;;;5043995;28;20072;-63
2023/12/08 05:49:41;;;;;;;37.58;18.92;;;0.70;99.90;;;;;;5063079;28;20199;-64
2023/12/08 05:52:07;;;;;;;36.40;18.25;;;0.60;99.90;;;;;;5053418;28;20078;-64
2023/12/08 05:54:32;;;;;;;38.30;18.13;;;0.60;99.90;;;;;;5041163;28;20048;-64
2023/12/08 05:56:58;;;;;;;35.53;18.58;;;0.60;99.90;;;;;;5045501;28;20044;-63
2023/12/08 05:59:24;;;;;;;37.33;18.52;;;0.60;99.90;;;;;;5053575;28;20488;-63
2023/12/08 06:01:49;;;;;;;34.50;18.27;;;0.60;99.90;;;;;;5050539;28;20045;-64
2023/12/08 06:04:16;;;;;;;42.85;19.38;;;0.70;99.90;;;;;;5037436;28;20378;-64
2023/12/08 06:06:42;;;;;;;37.47;18.85;;;0.60;99.90;;;;;;5060694;28;20053;-63
2023/12/08 06:09:07;;;;;;;39.75;18.60;;;0.70;99.90;;;;;;5065330;28;20485;-64
2023/12/08 06:11:33;;;;;;;36.22;19.27;;;0.70;99.90;;;;;;5054609;28;20115;-63
2023/12/08 06:13:59;;;;;;;38.13;19.67;;;0.70;99.90;;;;;;5064230;28;20055;-64
2023/12/08 06:16:25;;;;;;;38.10;18.75;;;0.70;99.90;;;;;;5044711;28;20123;-64
2023/12/08 06:18:51;;;;;;;38.80;19.70;;;0.60;99.90;;;;;;5063593;28;20083;-64
2023/12/08 06:21:17;;;;;;;37.25;18.13;;;0.60;99.90;;;;;;5067760;28;20048;-64
2023/12/08 06:23:43;;;;;;;37.75;19.52;;;0.60;99.90;;;;;;5070933;28;20063;-64
2023/12/08 06:26:08;;;;;;;36.90;19.15;;;0.60;99.90;;;;;;5073343;28;20150;-64
2023/12/08 06:28:34;;;;;;;40.40;20.05;;;0.60;99.90;;;;;;5064802;28;20051;-64
2023/12/08 06:31:01;;;;;;;36.17;19.48;;;0.60;99.90;;;;;;5051820;28;20911;-64
2023/12/08 06:33:27;;;;;;;38.88;19.70;;;0.60;99.90;;;;;;5067217;28;20036;-64
2023/12/08 06:35:52;;;;;;;40.83;20.08;;;0.60;99.90;;;;;;5058736;28;20525;-63
2023/12/08 06:38:18;;;;;;;39.50;20.00;;;0.60;99.90;;;;;;5059753;28;20107;-64
2023/12/08 06:40:44;;;;;;;38.00;19.30;;;0.60;99.90;;;;;;5059464;28;20569;-63
2023/12/08 06:43:09;;;;;;;42.83;20.27;;;0.60;99.90;;;;;;5059023;28;20056;-63
2023/12/08 06:45:35;;;;;;;38.92;20.27;;;0.60;99.90;;;;;;5057669;28;20041;-64
2023/12/08 06:48:01;;;;;;;36.60;19.80;;;0.70;99.90;;;;;;5054465;28;20037;-63
2023/12/08 06:50:27;;;;;;;39.67;19.80;;;0.60;99.90;;;;;;5057737;28;20045;-64
2023/12/08 06:52:52;;;;;;;42.60;20.73;;;0.60;99.90;;;;;;5053396;28;20047;-64
2023/12/08 06:55:18;;;;;;;44.45;21.33;;;0.50;99.90;;;;;;5051150;28;20048;-64
2023/12/08 06:57:44;;;;;;;39.78;19.38;;;0.60;99.90;;;;;;5058782;28;20124;-64
2023/12/08 07:00:11;;;;;;;37.33;19.17;;;0.50;99.90;;;;;;5050704;28;20044;-64
2023/12/08 07:02:37;;;;;;;45.45;21.92;;;0.50;99.90;;;;;;5059113;28;20044;-63
2023/12/08 07:05:02;;;;;;;42.13;20.60;;;0.50;99.90;;;;;;5046561;28;20053;-63
2023/12/08 07:07:28;;;;;;;44.53;20.85;;;0.50;99.90;;;;;;5051765;28;20543;-63
2023/12/08 07:09:54;;;;;;;43.83;21.90;;;1.00;99.90;;;;;;5051660;28;20049;-64
2023/12/08 07:12:20;;;;;;;40.95;20.50;;;-0.20;99.90;;;;;;5056095;28;20049;-63
2023/12/08 07:14:46;;;;;;;41.83;21.05;;;0.50;99.90;;;;;;5055253;28;20056;-63
2023/12/08 07:17:11;;;;;;;46.55;20.20;;;0.50;99.90;;;;;;5056011;28;20127;-63
2023/12/08 07:19:38;;;;;;;41.40;19.38;;;0.50;99.90;;;;;;5055654;28;20075;-63
2023/12/08 07:22:04;;;;;;;41.40;19.13;;;0.60;99.90;;;;;;5054640;28;20074;-63
2023/12/08 07:24:30;;;;;;;38.42;18.95;;;0.60;99.90;;;;;;5057694;28;20081;-63
2023/12/08 07:26:55;;;;;;;41.97;19.90;;;0.60;99.90;;;;;;5053044;28;20734;-63
2023/12/08 07:29:25;;;;;;;42.58;20.50;;;0.50;99.90;;;;;;5058952;28;20052;-64
2023/12/08 07:31:51;;;;;;;43.80;20.40;;;0.50;99.90;;;;;;5044412;28;20040;-63
2023/12/08 07:34:17;;;;;;;39.72;19.23;;;0.50;99.90;;;;;;5052720;28;20041;-64
2023/12/08 07:36:42;;;;;;;45.28;21.00;;;0.50;99.90;;;;;;5049263;28;20041;-63
2023/12/08 07:39:09;;;;;;;42.67;20.85;;;1.50;99.90;;;;;;5053421;28;20618;-64
2023/12/08 07:41:35;;;;;;;42.97;19.92;;;0.60;99.90;;;;;;5055643;28;20569;-64
2023/12/08 07:44:01;;;;;;;42.00;19.88;;;0.60;99.90;;;;;;5051119;28;20059;-63
2023/12/08 07:46:27;;;;;;;40.25;19.77;;;0.60;99.90;;;;;;5042829;28;20070;-64
2023/12/08 07:48:53;;;;;;;42.25;20.65;;;0.60;99.90;;;;;;5050725;28;20148;-64
2023/12/08 07:51:19;;;;;;;42.15;20.52;;;0.60;99.90;;;;;;5046579;28;20442;-64
2023/12/08 07:53:45;;;;;;;39.45;19.83;;;0.60;99.90;;;;;;5051659;28;20053;-64
2023/12/08 07:56:13;;;;;;;41.30;19.88;;;0.60;99.90;;;;;;5047686;28;20048;-63
2023/12/08 07:58:39;;;;;;;44.95;21.02;;;0.60;99.90;;;;;;5049351;28;20694;-63
2023/12/08 08:01:05;;;;;;;42.00;20.15;;;0.60;99.90;;;;;;5048520;28;20053;-63
2023/12/08 08:03:31;;;;;;;38.25;19.52;;;0.60;99.90;;;;;;5049001;28;20082;-63
2023/12/08 08:05:56;;;;;;;41.05;19.65;;;0.60;99.90;;;;;;5031467;28;20037;-63
2023/12/08 08:08:22;;;;;;;43.42;20.00;;;1.20;99.90;;;;;;5050141;28;20064;-63
2023/12/08 08:10:48;;;;;;;40.10;20.88;;;0.60;99.90;;;;;;5045941;28;20074;-65
2023/12/08 08:13:14;;;;;;;43.15;21.48;;;1.00;99.90;;;;;;5047831;28;20048;-63
2023/12/08 08:15:39;;;;;;;42.30;21.08;;;0.60;99.90;;;;;;5048259;28;20078;-63
2023/12/08 08:18:05;;;;;;;43.85;19.98;;;-0.40;99.90;;;;;;5051211;28;20318;-64
2023/12/08 08:20:31;;;;;;;42.92;20.33;;;0.70;99.90;;;;;;5049192;28;20052;-64
2023/12/08 08:22:57;;;;;;;43.85;20.85;;;0.60;99.90;;;;;;5036566;28;20139;-63
2023/12/08 08:25:23;;;;;;;44.75;20.55;;;0.60;99.90;;;;;;5052264;28;20053;-64
2023/12/08 08:27:53;;;;;;;38.92;19.75;;;0.60;99.90;;;;;;5048978;28;20044;-64
2023/12/08 08:30:20;;;;;;;37.05;18.65;;;0.70;99.90;;;;;;5048011;28;20049;-63
2023/12/08 08:32:45;;;;;;;45.72;20.45;;;0.70;99.90;;;;;;5050194;28;20056;-63
2023/12/08 08:35:11;;;;;;;42.75;21.23;;;0.60;99.90;;;;;;5049899;28;20118;-63
2023/12/08 08:37:37;;;;;;;41.15;20.92;;;0.70;99.90;;;;;;5047783;28;20048;-63
2023/12/08 08:40:05;;;;;;;38.67;19.95;;;0.70;99.90;;;;;;5041056;28;20933;-63
2023/12/08 08:42:31;;;;;;;40.45;20.80;;;0.70;99.90;;;;;;5049086;28;20053;-63
2023/12/08 08:44:57;;;;;;;42.80;20.10;;;0.70;99.90;;;;;;5050395;28;20048;-63
2023/12/08 08:47:23;;;;;;;40.50;19.75;;;0.70;99.90;;;;;;5033694;28;20044;-63
2023/12/08 08:49:49;;;;;;;43.40;20.73;;;0.70;99.90;;;;;;5046191;28;20051;-63
2023/12/08 08:52:15;;;;;;;38.22;20.20;;;0.70;99.90;;;;;;5048461;28;20566;-63
2023/12/08 08:54:40;;;;;;;43.10;20.60;;;1.70;99.90;;;;;;5053542;28;20048;-63
2023/12/08 08:57:06;;;;;;;41.13;20.55;;;0.70;99.90;;;;;;5052852;28;20560;-63
2023/12/08 08:59:32;;;;;;;39.63;20.02;;;0.70;99.90;;;;;;5055696;28;20052;-63
2023/12/08 09:01:57;;;;;;;44.58;21.15;;;0.70;99.90;;;;;;5033125;28;20060;-63
2023/12/08 09:04:23;;;;;;;41.13;20.50;;;0.70;99.90;;;;;;5050060;28;20123;-63
2023/12/08 09:06:49;;;;;;;41.28;19.98;;;0.70;99.90;;;;;;5047326;28;20052;-63
2023/12/08 09:09:14;;;;;;;40.72;20.23;;;0.70;99.90;;;;;;5048166;28;20135;-63
2023/12/08 09:11:41;;;;;;;42.08;21.52;;;0.70;99.90;;;;;;5030987;28;20102;-63
2023/12/08 09:14:07;;;;;;;46.70;21.27;;;0.70;99.90;;;;;;5034703;28;20188;-64
2023/12/08 09:16:32;;;;;;;42.97;20.75;;;0.70;99.90;;;;;;5051755;28;20913;-64
2023/12/08 09:18:58;;;;;;;40.63;21.27;;;1.20;99.90;;;;;;5051783;28;20056;-64
2023/12/08 09:21:24;;;;;;;45.33;21.45;;;0.70;99.90;;;;;;5044858;28;20802;-64
2023/12/08 09:23:51;;;;;;;43.42;20.75;;;0.70;99.90;;;;;;5051141;28;20054;-64
2023/12/08 09:26:17;;;;;;;41.72;20.58;;;0.70;99.90;;;;;;5045445;28;20109;-64
2023/12/08 09:28:42;;;;;;;40.80;20.73;;;0.80;99.90;;;;;;5046007;28;20762;-63
2023/12/08 09:31:08;;;;;;;46.72;21.20;;;0.80;99.90;;;;;;5049387;28;20125;-64
2023/12/08 09:33:34;;;;;;;47.72;22.67;;;0.80;99.90;;;;;;5051445;28;20071;-63
2023/12/08 09:35:59;;;;;;;45.80;19.92;;;0.80;99.90;;;;;;5051698;28;20098;-63
2023/12/08 09:38:25;;;;;;;40.75;20.52;;;1.00;99.90;;;;;;5045307;28;20178;-63
2023/12/08 09:40:51;;;;;;;45.20;21.08;;;0.80;99.90;;;;;;5045319;28;20033;-63
2023/12/08 09:43:33;;;;;;;40.70;21.27;;;0.80;99.90;;;;;;5045984;28;20048;-64
2023/12/08 09:46:01;;;;;;;44.05;20.38;;;0.80;99.90;;;;;;5049488;28;20836;-62
2023/12/08 09:48:30;;;;;;;45.63;20.90;;;0.80;99.90;;;;;;5049982;28;20048;-63
2023/12/08 09:50:58;;;;;;;42.35;20.73;;;0.80;99.90;;;;;;5045213;28;21178;-64
2023/12/08 09:53:26;;;;;;;43.35;21.23;;;0.80;99.90;;;;;;5053347;28;20079;-63
2023/12/08 09:55:53;;;;;;;47.35;22.30;;;0.90;99.90;;;;;;5056655;28;20656;-63
2023/12/08 09:58:22;;;;;;;42.35;20.77;;;0.90;99.90;;;;;;5053469;28;20090;-63
2023/12/08 10:00:48;;;;;;;38.85;20.15;;;0.90;99.90;;;;;;5046392;28;20507;-64
2023/12/08 10:03:14;;;;;;;42.45;20.38;;;1.10;99.90;;;;;;5056429;28;20136;-63
2023/12/08 10:05:40;;;;;;;42.08;20.42;;;0.90;99.90;;;;;;5041855;28;20967;-63
2023/12/08 10:08:08;;;;;;;42.05;20.27;;;0.90;99.90;;;;;;5057897;28;20048;-63
2023/12/08 10:10:35;;;;;;;45.88;19.77;;;1.40;99.90;;;;;;5058199;28;20090;-63
2023/12/08 10:13:01;;;;;;;40.13;20.55;;;0.90;99.90;;;;;;5051844;28;20104;-63
2023/12/08 10:15:27;;;;;;;44.53;20.63;;;0.90;99.90;;;;;;5057619;28;20059;-63
2023/12/08 10:17:53;;;;;;;42.17;20.83;;;0.90;99.90;;;;;;5052343;28;20045;-63
2023/12/08 10:20:20;;;;;;;43.17;20.52;;;0.90;99.90;;;;;;5051588;28;21058;-63
2023/12/08 10:22:54;;;;;;;44.70;20.70;;;0.90;99.90;;;;;;5042318;28;20440;-66
2023/12/08 10:25:26;;;;;;;41.97;19.42;;;1.00;99.90;;;;;;5044163;28;20063;-66
2023/12/08 10:27:56;;;;;;;41.90;20.75;;;1.30;99.90;;;;;;5052074;28;20576;-65
2023/12/08 10:30:24;;;;;;;48.72;22.10;;;1.00;99.90;;;;;;5052657;28;20048;-65
2023/12/08 10:32:50;;;;;;;46.50;21.67;;;1.00;99.90;;;;;;5052758;28;20048;-65
2023/12/08 10:35:17;;;;;;;42.28;20.73;;;1.00;99.90;;;;;;5049044;28;20123;-66
2023/12/08 10:37:44;;;;;;;42.88;20.65;;;1.10;99.90;;;;;;5055233;28;20725;-66
2023/12/08 10:40:14;;;;;;;39.10;19.75;;;1.00;99.90;;;;;;5055308;28;20056;-65
2023/12/08 10:42:41;;;;;;;46.35;22.48;;;1.60;99.90;;;;;;5050831;28;20045;-66
2023/12/08 10:45:11;;;;;;;44.53;21.73;;;1.20;99.90;;;;;;5054925;28;20049;-66
2023/12/08 10:47:45;;;;;;;41.30;21.35;;;1.10;99.90;;;;;;5051909;28;20036;-65
2023/12/08 10:50:11;;;;;;;45.03;21.27;;;1.10;99.90;;;;;;5057828;28;20121;-66
2023/12/08 10:52:38;;;;;;;45.33;20.90;;;1.30;99.90;;;;;;5046674;28;20045;-66
2023/12/08 10:55:08;;;;;;;44.47;20.30;;;1.10;99.90;;;;;;5054450;28;20048;-66
2023/12/08 10:57:39;;;;;;;41.58;20.15;;;1.10;99.90;;;;;;5056196;28;20127;-66
2023/12/08 11:00:18;;;;;;;47.03;22.27;;;1.10;99.90;;;;;;5049191;28;20048;-66
2023/12/08 11:02:47;;;;;;;45.10;21.05;;;1.10;99.90;;;;;;5057970;28;20053;-66
2023/12/08 11:05:21;;;;;;;46.35;22.02;;;1.10;99.90;;;;;;5059298;28;20494;-65
2023/12/08 11:07:49;;;;;;;49.08;21.45;;;1.30;99.90;;;;;;5069062;28;20044;-65
2023/12/08 11:10:15;;;;;;;47.58;21.95;;;1.10;99.90;;;;;;5059575;28;20044;-66
2023/12/08 11:13:01;;;;;;;49.22;21.42;;;1.10;99.90;;;;;;5070551;28;20127;-65
2023/12/08 11:15:33;;;;;;;46.85;21.95;;;1.20;99.90;;;;;;5058021;28;20091;-69
2023/12/08 11:18:04;;;;;;;;;;;1.20;99.90;;;;;;5061073;28;20132;-66
2023/12/08 11:20:30;;;;;;;52.40;22.05;;;1.20;99.90;;;;;;5060236;28;19935;-66
2023/12/08 11:22:56;;;;;;;54.10;23.02;;;1.90;99.90;;;;;;5071042;28;20048;-68
2023/12/08 11:25:33;;;;;;;48.53;23.15;;;1.40;99.90;;;;;;5062233;28;20123;-64
2023/12/08 11:28:22;;;;;;;48.38;22.77;;;1.70;99.90;;;;;;5062627;28;20791;-66
2023/12/08 11:30:56;;;;;;;56.10;23.30;;;1.20;99.90;;;;;;5062734;28;21925;-64
2023/12/08 11:33:35;;;;;;;58.53;24.02;;;1.20;99.90;;;;;;5065524;28;20039;-63
2023/12/08 11:36:13;;;;;;;56.67;23.77;;;1.20;99.90;;;;;;5060462;28;20048;-66
2023/12/08 11:38:39;;;;;;;53.63;22.45;;;1.30;99.90;;;;;;5052927;28;20608;-66
2023/12/08 11:41:15;;;;;;;54.05;23.02;;;1.30;99.90;;;;;;5050624;28;20037;-66
2023/12/08 11:43:42;;;;;;;59.63;24.20;;;1.30;99.90;;;;;;5055683;28;20507;-65
2023/12/08 11:46:08;;;;;;;55.25;24.15;;;0.50;99.90;;;;;;5058431;28;20606;-66
2023/12/08 11:48:35;;;;;;;54.83;24.27;;;1.30;99.90;;;;;;5057942;28;20045;-66
2023/12/08 11:51:01;;;;;;;60.28;24.48;;;1.30;99.90;;;;;;5034807;28;20106;-66
2023/12/08 11:53:27;;;;;;;52.40;23.27;;;1.30;99.90;;;;;;5053099;28;20045;-66
2023/12/08 11:55:54;;;;;;;54.42;23.67;;;1.30;99.90;;;;;;5035773;28;20468;-65
2023/12/08 11:58:31;;;;;;;69.50;24.63;;;1.30;99.90;;;;;;5056424;28;20063;-63
2023/12/08 12:01:00;;;;;;;57.13;25.02;;;1.30;99.90;;;;;;5055443;28;20057;-64
2023/12/08 12:03:26;;;;;;;59.25;23.42;;;1.40;99.90;;;;;;5068246;28;20131;-63
2023/12/08 12:05:52;;;;;;;59.05;24.48;;;1.50;99.90;;;;;;5059779;28;20036;-63
2023/12/08 12:08:19;;;;;;;65.28;26.08;;;1.40;99.90;;;;;;5058679;28;20110;-74
2023/12/08 12:10:46;;;;;;;67.85;25.80;;;1.40;99.90;;;;;;5055090;28;20044;-63
2023/12/08 12:13:13;;;;;;;62.88;24.40;;;1.50;99.90;;;;;;5053971;28;20451;-64
2023/12/08 12:15:41;;;;;;;68.75;26.15;;;1.40;99.90;;;;;;5061322;28;20408;-63
2023/12/08 12:18:07;;;;;;;63.45;26.85;;;1.50;99.90;;;;;;5046492;28;20440;-63
2023/12/08 12:20:34;;;;;;;65.25;24.95;;;1.40;99.90;;;;;;5034497;28;20068;-68
2023/12/08 12:23:00;;;;;;;60.78;25.63;;;1.40;99.90;;;;;;5057504;28;20076;-63
2023/12/08 12:25:26;;;;;;;56.92;24.08;;;1.50;99.90;;;;;;5063016;28;20068;-63
2023/12/08 12:27:53;;;;;;;70.13;26.52;;;1.50;99.90;;;;;;5052860;28;21650;-63
2023/12/08 12:30:20;;;;;;;60.40;26.27;;;1.50;99.90;;;;;;5056545;28;20053;-63
2023/12/08 12:32:48;;;;;;;67.65;25.05;;;1.50;99.90;;;;;;5037430;28;20036;-63
2023/12/08 12:35:14;;;;;;;63.65;26.88;;;1.60;99.90;;;;;;5051898;28;20118;-64